Time;durP1;ratioP1;P1;durP2;ratioP2;P2;SDS_P1;SDS_P2;PMS_P1;PMS_P2;Temp;Humidity;BMP_temperature;BMP_pressure;BME280_temperature;BME280_humidity;BME280_pressure;Samples;Min_cycle;Max_cycle;Signal;HPM_P1;HPM_P2
2022/04/27 00:01:15;;;;;;;131.80;55.85;;;6.40;99.90;;;;;;4981431;28;20086;-71
2022/04/27 00:03:42;;;;;;;119.32;54.10;;;6.30;99.90;;;;;;4975221;28;20098;-71
2022/04/27 00:06:09;;;;;;;126.03;55.28;;;6.20;99.90;;;;;;4985779;28;20608;-71
2022/04/27 00:08:37;;;;;;;124.43;57.33;;;6.30;99.90;;;;;;4995657;28;20057;-71
2022/04/27 00:11:04;;;;;;;94.45;48.25;;;6.40;99.90;;;;;;4994677;28;20046;-71
2022/04/27 00:13:31;;;;;;;79.95;44.08;;;6.40;99.90;;;;;;4993033;28;20599;-72
2022/04/27 00:15:58;;;;;;;70.55;38.25;;;6.40;99.90;;;;;;4995723;28;20042;-72
2022/04/27 00:18:25;;;;;;;56.80;33.25;;;6.40;99.90;;;;;;4997130;28;20053;-71
2022/04/27 00:20:52;;;;;;;56.15;34.45;;;6.30;99.90;;;;;;4994036;28;20076;-72
2022/04/27 00:23:19;;;;;;;68.55;36.10;;;6.20;99.90;;;;;;4992661;28;20108;-72
2022/04/27 00:25:45;;;;;;;62.97;35.25;;;6.20;99.90;;;;;;4982868;28;20673;-72
2022/04/27 00:28:12;;;;;;;61.08;35.72;;;6.20;99.90;;;;;;4995107;28;20752;-72
2022/04/27 00:30:39;;;;;;;59.90;36.05;;;6.10;99.90;;;;;;4988511;28;20050;-71
2022/04/27 00:33:06;;;;;;;56.53;33.78;;;6.10;99.90;;;;;;4958569;28;20058;-72
2022/04/27 00:35:33;;;;;;;59.45;33.75;;;6.00;99.90;;;;;;4975379;28;20050;-71
2022/04/27 00:37:59;;;;;;;59.00;33.88;;;5.90;99.90;;;;;;4975712;28;20050;-71
2022/04/27 00:40:26;;;;;;;55.30;32.42;;;5.90;99.90;;;;;;4977245;28;20581;-71
2022/04/27 00:42:53;;;;;;;66.72;33.13;;;5.80;99.90;;;;;;4975353;28;20092;-71
2022/04/27 00:45:21;;;;;;;54.05;33.67;;;5.80;99.90;;;;;;4958678;28;20811;-71
2022/04/27 00:47:48;;;;;;;55.38;31.83;;;5.70;99.90;;;;;;4975389;28;20500;-71
2022/04/27 00:50:15;;;;;;;51.58;32.35;;;5.70;99.90;;;;;;4986381;28;20711;-72
2022/04/27 00:52:42;;;;;;;47.78;31.90;;;5.80;99.90;;;;;;4976767;28;20547;-71
2022/04/27 00:55:09;;;;;;;58.08;33.05;;;5.70;99.90;;;;;;4984212;28;20704;-71
2022/04/27 00:57:39;;;;;;;54.47;30.63;;;5.70;99.90;;;;;;4983784;28;20402;-71
2022/04/27 01:00:10;;;;;;;49.50;31.27;;;5.50;99.90;;;;;;4956235;28;20104;-70
2022/04/27 01:02:37;;;;;;;61.60;32.63;;;5.40;99.90;;;;;;4992425;28;20064;-71
2022/04/27 01:05:11;;;;;;;61.42;33.25;;;5.40;99.90;;;;;;4994559;28;20264;-71
2022/04/27 01:07:39;;;;;;;56.85;31.55;;;5.30;99.90;;;;;;4978743;28;20561;-71
2022/04/27 01:10:08;;;;;;;72.90;37.55;;;5.20;99.90;;;;;;4990905;28;20052;-70
2022/04/27 01:12:36;;;;;;;71.78;37.72;;;5.10;99.90;;;;;;4957506;28;20121;-71
2022/04/27 01:15:08;;;;;;;79.25;39.53;;;5.10;99.90;;;;;;4973055;28;20189;-71
2022/04/27 01:17:35;;;;;;;68.68;35.45;;;5.00;99.90;;;;;;4958838;28;20058;-71
2022/04/27 01:20:04;;;;;;;73.25;35.75;;;5.10;99.90;;;;;;4973875;28;20570;-71
2022/04/27 01:22:31;;;;;;;225.40;55.17;;;5.00;99.90;;;;;;4986327;28;20273;-71
2022/04/27 01:24:58;;;;;;;68.07;37.28;;;4.90;99.90;;;;;;4962728;28;20048;-71
2022/04/27 01:27:25;;;;;;;82.20;38.60;;;4.80;99.90;;;;;;4982078;28;20058;-71
2022/04/27 01:29:51;;;;;;;135.10;46.60;;;4.70;99.90;;;;;;4972406;28;20089;-71
2022/04/27 01:32:19;;;;;;;454.27;71.15;;;4.70;99.90;;;;;;4964560;28;20077;-71
2022/04/27 01:34:46;;;;;;;700.53;91.13;;;4.70;99.90;;;;;;4976550;28;20073;-72
2022/04/27 01:39:58;;;;;;;638.45;89.18;;;4.70;99.90;;;;;;4992752;28;20072;-71
2022/04/27 01:42:24;;;;;;;692.38;97.97;;;4.70;99.90;;;;;;4992544;28;20380;-71
2022/04/27 01:44:52;;;;;;;625.80;92.65;;;4.80;99.90;;;;;;5012280;28;20136;-71
2022/04/27 01:47:18;;;;;;;740.38;101.90;;;4.70;99.90;;;;;;4998317;28;20057;-71
2022/04/27 01:49:45;;;;;;;696.85;102.80;;;4.60;99.90;;;;;;5008450;23;20045;-77
2022/04/27 01:54:57;;;;;;;490.48;78.90;;;4.70;99.90;;;;;;5021486;28;20041;-76
2022/04/27 01:57:24;;;;;;;480.58;83.45;;;4.70;99.90;;;;;;4984969;28;20501;-76
2022/04/27 01:59:51;;;;;;;281.13;64.88;;;4.50;99.90;;;;;;4994710;28;20494;-77
2022/04/27 02:02:18;;;;;;;321.08;65.28;;;4.50;99.90;;;;;;5015996;28;20448;-77
2022/04/27 02:04:46;;;;;;;492.75;76.85;;;4.50;99.90;;;;;;4979543;28;20141;-76
2022/04/27 02:07:17;;;;;;;608.60;84.15;;;4.50;99.90;;;;;;4996657;28;20649;-76
2022/04/27 02:09:44;;;;;;;404.75;68.13;;;4.50;99.90;;;;;;5011317;28;20044;-76
2022/04/27 02:12:13;;;;;;;610.70;88.22;;;4.50;99.90;;;;;;4987406;28;20045;-77
2022/04/27 02:14:42;;;;;;;446.17;75.68;;;4.30;99.90;;;;;;5015177;28;20080;-76
2022/04/27 02:17:09;;;;;;;600.38;86.47;;;4.40;99.90;;;;;;4999349;28;20045;-77
2022/04/27 02:19:37;;;;;;;525.83;79.50;;;4.30;99.90;;;;;;5000086;28;20315;-76
2022/04/27 02:22:05;;;;;;;691.90;99.78;;;4.30;99.90;;;;;;4998802;28;20049;-76
2022/04/27 02:24:32;;;;;;;526.88;79.50;;;4.20;99.90;;;;;;5000316;28;20045;-77
2022/04/27 02:26:59;;;;;;;627.88;92.05;;;4.20;99.90;;;;;;4994821;28;20058;-77
2022/04/27 02:29:29;;;;;;;796.22;112.43;;;4.10;99.90;;;;;;5014876;28;20540;-78
2022/04/27 02:32:06;;;;;;;577.97;91.15;;;3.90;99.90;;;;;;4998852;28;20046;-76
2022/04/27 02:34:33;;;;;;;618.08;90.05;;;3.80;99.90;;;;;;4992734;28;20057;-77
2022/04/27 02:37:00;;;;;;;584.97;83.78;;;3.90;99.90;;;;;;5013141;28;20433;-76
2022/04/27 02:39:27;;;;;;;725.67;93.70;;;3.90;99.90;;;;;;5015817;28;20150;-76
2022/04/27 02:41:54;;;;;;;600.50;88.57;;;3.80;99.90;;;;;;5010015;28;20181;-77
2022/04/27 02:44:21;;;;;;;482.20;76.45;;;3.70;99.90;;;;;;5012662;28;20046;-77
2022/04/27 02:46:48;;;;;;;437.20;78.68;;;3.70;99.90;;;;;;4988721;28;20563;-77
2022/04/27 02:52:02;;;;;;;359.30;72.43;;;3.80;99.90;;;;;;4998470;28;20535;-77
2022/04/27 02:54:54;;;;;;;351.60;70.25;;;3.60;99.90;;;;;;5008553;28;20049;-77
2022/04/27 02:57:21;;;;;;;276.15;63.25;;;3.50;99.90;;;;;;5019675;28;20049;-79
2022/04/27 02:59:49;;;;;;;211.63;58.55;;;3.40;99.90;;;;;;5038262;28;20046;-79
2022/04/27 03:02:16;;;;;;;200.55;57.75;;;3.30;99.90;;;;;;5023464;28;20052;-76
2022/04/27 03:04:44;;;;;;;371.50;70.38;;;3.20;99.90;;;;;;5004428;28;20052;-79
2022/04/27 03:07:11;;;;;;;426.05;74.85;;;3.10;99.90;;;;;;5020900;28;20057;-79
2022/04/27 03:09:44;;;;;;;418.88;79.18;;;3.20;99.90;;;;;;5003283;28;20046;-79
2022/04/27 03:12:12;;;;;;;447.83;76.85;;;3.20;99.90;;;;;;4997566;28;20051;-79
2022/04/27 03:14:41;;;;;;;647.25;92.10;;;3.20;99.90;;;;;;4985773;28;20049;-80
2022/04/27 03:17:09;;;;;;;627.92;86.82;;;3.20;99.90;;;;;;4988750;28;20042;-78
2022/04/27 03:19:36;;;;;;;474.60;78.63;;;3.20;99.90;;;;;;4971017;28;20038;-79
2022/04/27 03:22:03;;;;;;;574.97;86.35;;;3.40;99.90;;;;;;4982322;28;20074;-78
2022/04/27 03:24:30;;;;;;;486.35;74.53;;;3.30;99.90;;;;;;5002837;28;20048;-76
2022/04/27 03:27:10;;;;;;;547.85;84.60;;;3.30;99.90;;;;;;5007750;28;20048;-77
2022/04/27 03:29:39;;;;;;;537.22;87.45;;;3.30;99.90;;;;;;4986759;28;20046;-77
2022/04/27 03:32:09;;;;;;;447.45;79.78;;;3.30;99.90;;;;;;4987328;28;20038;-75
2022/04/27 03:34:39;;;;;;;524.33;83.47;;;3.30;99.90;;;;;;4988271;28;20049;-76
2022/04/27 03:37:07;;;;;;;831.45;118.75;;;3.30;99.90;;;;;;4975003;28;20050;-77
2022/04/27 03:39:35;;;;;;;432.42;72.78;;;3.20;99.90;;;;;;5001634;28;20050;-77
2022/04/27 03:42:17;;;;;;;469.70;74.65;;;3.00;99.90;;;;;;4987361;28;20574;-79
2022/04/27 03:44:47;;;;;;;603.45;88.97;;;3.10;99.90;;;;;;5002083;28;20048;-78
2022/04/27 03:47:14;;;;;;;375.90;69.38;;;3.10;99.90;;;;;;4989370;28;20053;-78
2022/04/27 03:49:41;;;;;;;315.83;66.68;;;3.10;99.90;;;;;;5025597;28;20088;-79
2022/04/27 03:52:07;;;;;;;497.02;79.43;;;2.80;99.90;;;;;;5000813;28;20513;-79
2022/04/27 03:54:35;;;;;;;445.92;76.75;;;2.70;99.90;;;;;;5025720;28;20092;-78
2022/04/27 03:57:03;;;;;;;353.48;69.10;;;2.70;99.90;;;;;;5011302;28;20382;-79
2022/04/27 03:59:29;;;;;;;363.92;72.75;;;2.90;99.90;;;;;;5002842;28;20054;-79
2022/04/27 04:01:56;;;;;;;355.55;69.90;;;3.00;99.90;;;;;;5001844;28;20058;-79
2022/04/27 04:04:24;;;;;;;736.47;107.07;;;3.10;99.90;;;;;;5017430;28;20745;-78
2022/04/27 04:06:52;;;;;;;437.35;75.28;;;2.90;99.90;;;;;;4989999;28;20046;-80
2022/04/27 04:09:18;;;;;;;403.00;75.60;;;3.00;99.90;;;;;;5007195;28;20100;-79
2022/04/27 04:11:46;;;;;;;421.45;74.72;;;3.00;99.90;;;;;;5020603;28;20176;-78
2022/04/27 04:14:39;;;;;;;565.30;85.80;;;3.10;99.90;;;;;;5012329;28;20541;-77
2022/04/27 04:17:22;;;;;;;590.38;90.90;;;3.00;99.90;;;;;;5010896;28;20057;-78
2022/04/27 04:19:56;;;;;;;557.53;82.43;;;3.00;99.90;;;;;;5001999;28;20124;-79
2022/04/27 04:22:46;;;;;;;665.10;93.53;;;3.10;99.90;;;;;;4985687;28;20057;-79
2022/04/27 04:28:30;;;;;;;;;;;3.10;99.90;;;;;;5006997;28;20042;-77
2022/04/27 04:31:00;;;;;;;637.55;87.15;;;3.10;99.90;;;;;;5020976;28;19929;-77
2022/04/27 04:33:45;;;;;;;672.33;93.20;;;3.10;99.90;;;;;;5016589;28;20768;-76
2022/04/27 04:36:12;;;;;;;569.60;84.03;;;3.10;99.90;;;;;;5005593;28;20046;-77
2022/04/27 04:38:41;;;;;;;658.65;92.95;;;3.10;99.90;;;;;;4995798;28;20085;-77
2022/04/27 04:41:09;;;;;;;536.35;83.95;;;3.10;99.90;;;;;;5001742;28;20049;-77
2022/04/27 04:43:49;;;;;;;567.10;82.38;;;3.10;99.90;;;;;;5013078;28;20120;-77
2022/04/27 04:46:19;;;;;;;513.17;81.93;;;3.00;99.90;;;;;;5024798;28;20050;-77
2022/04/27 04:48:54;;;;;;;597.95;89.85;;;3.00;99.90;;;;;;4975745;28;20113;-76
2022/04/27 04:51:33;;;;;;;612.75;86.45;;;2.90;99.90;;;;;;5003391;28;20050;-77
2022/04/27 04:54:20;;;;;;;536.88;79.90;;;2.90;99.90;;;;;;5007417;28;20110;-77
2022/04/27 04:57:06;;;;;;;491.45;79.75;;;2.90;99.90;;;;;;5004913;28;20196;-77
2022/04/27 04:59:41;;;;;;;;;;;2.90;99.90;;;;;;5010539;28;20540;-77
2022/04/27 05:02:14;;;;;;;643.53;86.60;;;2.90;99.90;;;;;;5025778;28;19921;-77
2022/04/27 05:05:02;;;;;;;;;;;2.90;99.90;;;;;;5003287;28;20061;-76
2022/04/27 05:07:30;;;;;;;486.10;79.07;;;2.90;99.90;;;;;;5019449;28;20027;-77
2022/04/27 05:10:15;;;;;;;1026.60;139.23;;;2.90;99.90;;;;;;5000134;28;20638;-78
2022/04/27 05:12:42;;;;;;;509.83;78.05;;;2.90;99.90;;;;;;5003954;28;20045;-76
2022/04/27 05:15:21;;;;;;;483.90;75.88;;;2.90;99.90;;;;;;4998413;28;20084;-78
2022/04/27 05:18:06;;;;;;;440.70;69.75;;;3.10;99.90;;;;;;4999999;28;20103;-77
2022/04/27 05:20:52;;;;;;;306.75;63.80;;;3.00;99.90;;;;;;4988454;28;20630;-76
2022/04/27 05:23:37;;;;;;;149.40;49.72;;;3.00;99.90;;;;;;5003860;28;20112;-77
2022/04/27 05:26:22;;;;;;;262.98;58.88;;;3.20;99.90;;;;;;5013698;28;20555;-77
2022/04/27 05:32:16;;;;;;;232.70;59.00;;;3.50;99.90;;;;;;4983096;28;20774;-76
2022/04/27 05:34:58;;;;;;;258.52;62.40;;;3.60;99.90;;;;;;5000584;28;20097;-77
2022/04/27 05:37:37;;;;;;;246.57;60.65;;;3.60;99.90;;;;;;4999684;28;20155;-77
2022/04/27 05:40:05;;;;;;;299.25;63.15;;;3.50;99.90;;;;;;5011128;28;20096;-77
2022/04/27 05:42:51;;;;;;;191.95;53.95;;;3.60;99.90;;;;;;5007847;28;20057;-76
2022/04/27 05:45:23;;;;;;;249.50;57.05;;;3.70;99.90;;;;;;4988260;28;20042;-76
2022/04/27 05:48:03;;;;;;;175.40;49.85;;;3.80;99.90;;;;;;5013980;28;20058;-77
2022/04/27 05:51:03;;;;;;;112.03;43.58;;;3.70;99.90;;;;;;4989551;28;20536;-76
2022/04/27 05:53:41;;;;;;;110.80;44.08;;;3.50;99.90;;;;;;5002208;28;20041;-77
2022/04/27 05:56:26;;;;;;;;;;;3.40;99.90;;;;;;5027207;28;20218;-77
2022/04/27 05:59:03;;;;;;;101.70;42.00;;;3.50;99.90;;;;;;5010339;28;19949;-77
2022/04/27 06:01:48;;;;;;;95.88;43.15;;;3.80;99.90;;;;;;4998179;28;20203;-77
2022/04/27 06:04:21;;;;;;;105.97;44.95;;;3.90;99.90;;;;;;5000599;28;20049;-77
2022/04/27 06:06:48;;;;;;;106.18;45.45;;;4.10;99.90;;;;;;5001076;28;20133;-77
2022/04/27 06:09:17;;;;;;;105.18;45.88;;;4.40;99.90;;;;;;4974752;28;20046;-76
2022/04/27 06:11:54;;;;;;;99.18;45.65;;;4.60;99.90;;;;;;4972189;28;20053;-77
2022/04/27 06:14:40;;;;;;;91.03;44.10;;;4.60;99.90;;;;;;5014271;28;20065;-77
2022/04/27 06:17:30;;;;;;;99.40;43.20;;;4.80;99.90;;;;;;4992162;28;20116;-77
2022/04/27 06:20:00;;;;;;;102.80;52.78;;;4.80;99.90;;;;;;4954276;28;20089;-77
2022/04/27 06:22:28;;;;;;;98.35;50.20;;;4.90;99.90;;;;;;4978785;28;20045;-78
2022/04/27 06:24:55;;;;;;;92.38;46.28;;;5.10;99.90;;;;;;5002062;28;20046;-78
2022/04/27 06:27:40;;;;;;;100.30;49.30;;;5.30;99.90;;;;;;5022653;28;20133;-78
2022/04/27 06:30:09;;;;;;;134.05;56.65;;;5.50;99.90;;;;;;4971553;28;20050;-78
2022/04/27 06:32:38;;;;;;;80.18;45.33;;;5.80;99.90;;;;;;5009871;28;20034;-78
2022/04/27 06:35:06;;;;;;;107.97;45.35;;;6.10;99.90;;;;;;5002424;28;20119;-78
2022/04/27 06:37:35;;;;;;;76.60;40.88;;;6.40;99.90;;;;;;5002459;28;20397;-78
2022/04/27 06:40:02;;;;;;;84.68;40.28;;;6.50;99.90;;;;;;5004988;28;20073;-77
2022/04/27 06:42:30;;;;;;;63.65;36.20;;;6.70;99.90;;;;;;4987513;28;20046;-78
2022/04/27 06:45:15;;;;;;;;;;;6.90;99.90;;;;;;5006524;28;20088;-78
2022/04/27 06:48:00;;;;;;;62.57;33.97;;;7.10;99.90;;;;;;5006207;28;20420;-78
2022/04/27 06:50:46;;;;;;;646.13;91.70;;;7.30;99.90;;;;;;4994425;28;20056;-78
2022/04/27 06:53:31;;;;;;;226.50;49.65;;;7.60;99.90;;;;;;5003755;28;20475;-78
2022/04/27 06:56:21;;;;;;;48.50;28.60;;;7.70;99.90;;;;;;5023817;28;20045;-78
2022/04/27 06:59:06;;;;;;;231.75;48.80;;;7.70;99.90;;;;;;4989268;28;20060;-77
2022/04/27 07:01:37;;;;;;;171.40;39.95;;;8.20;99.90;;;;;;4999539;28;20038;-77
2022/04/27 07:04:09;;;;;;;54.53;30.42;;;8.40;99.90;;;;;;5017948;28;20078;-77
2022/04/27 07:06:36;;;;;;;51.67;31.52;;;8.70;99.90;;;;;;5017738;28;20643;-77
2022/04/27 07:09:04;;;;;;;32.47;28.98;;;8.90;99.90;;;;;;5018758;28;20098;-76
2022/04/27 07:11:31;;;;;;;53.67;29.90;;;9.10;99.90;;;;;;5012112;28;20111;-78
2022/04/27 07:13:58;;;;;;;31.83;26.73;;;9.40;99.90;;;;;;4983843;28;20073;-77
2022/04/27 07:16:25;;;;;;;33.60;28.25;;;9.50;99.90;;;;;;4999365;28;20054;-76
2022/04/27 07:18:53;;;;;;;31.85;28.30;;;9.60;99.90;;;;;;4988755;28;20048;-77
2022/04/27 07:21:20;;;;;;;38.35;29.25;;;9.90;99.90;;;;;;4999503;28;20524;-77
2022/04/27 07:23:47;;;;;;;30.83;27.58;;;10.10;99.90;;;;;;5004530;28;20460;-76
2022/04/27 07:26:14;;;;;;;36.60;29.38;;;10.20;99.90;;;;;;5028561;28;20063;-77
2022/04/27 07:28:41;;;;;;;35.22;30.48;;;10.30;99.90;;;;;;5037857;28;20080;-76
2022/04/27 07:31:09;;;;;;;34.33;29.23;;;10.50;99.90;;;;;;5026262;28;20508;-77
2022/04/27 07:33:36;;;;;;;31.40;28.38;;;10.70;99.90;;;;;;4983943;28;20057;-75
2022/04/27 07:36:06;;;;;;;31.73;28.58;;;10.40;99.90;;;;;;5000513;28;20050;-76
2022/04/27 07:38:33;;;;;;;34.00;30.85;;;10.20;99.90;;;;;;5002525;28;20100;-76
2022/04/27 07:41:00;;;;;;;32.33;28.98;;;10.50;99.90;;;;;;5002945;28;20081;-77
2022/04/27 07:43:26;;;;;;;33.10;29.58;;;10.80;99.90;;;;;;5014587;28;20144;-77
2022/04/27 07:45:53;;;;;;;32.90;29.88;;;11.10;99.90;;;;;;4983401;28;20066;-76
2022/04/27 07:48:20;;;;;;;35.28;31.83;;;11.40;99.90;;;;;;5016294;28;20053;-76
2022/04/27 07:50:47;;;;;;;34.65;31.30;;;11.60;99.90;;;;;;5004007;28;20050;-75
2022/04/27 07:53:13;;;;;;;35.25;32.35;;;11.90;99.90;;;;;;4990797;28;20059;-75
2022/04/27 07:55:40;;;;;;;36.50;33.60;;;11.90;99.90;;;;;;5030894;28;20140;-75
2022/04/27 07:58:07;;;;;;;36.35;33.15;;;11.80;99.90;;;;;;5040410;28;20053;-75
2022/04/27 08:00:34;;;;;;;35.00;32.22;;;12.20;99.90;;;;;;5023211;28;20144;-75
2022/04/27 08:03:01;;;;;;;34.95;32.17;;;12.50;99.90;;;;;;5028652;28;20058;-78
2022/04/27 08:05:28;;;;;;;34.10;31.17;;;12.50;99.90;;;;;;5004277;28;20104;-75
2022/04/27 08:07:54;;;;;;;32.92;30.40;;;12.70;99.90;;;;;;5005344;28;20204;-76
2022/04/27 08:10:21;;;;;;;34.58;31.92;;;12.70;99.90;;;;;;5004002;28;20050;-77
2022/04/27 08:12:49;;;;;;;33.75;31.15;;;12.70;99.90;;;;;;5003503;28;20058;-75
2022/04/27 08:15:18;;;;;;;34.08;31.63;;;13.10;99.90;;;;;;5014804;28;20456;-76
2022/04/27 08:18:03;;;;;;;34.80;32.28;;;12.40;99.90;;;;;;4976322;28;20034;-76
2022/04/27 08:23:32;;;;;;;34.88;32.13;;;12.50;99.90;;;;;;5017989;28;20037;-76
2022/04/27 08:26:01;;;;;;;33.72;31.17;;;13.10;99.90;;;;;;5012856;28;20081;-76
2022/04/27 08:28:29;;;;;;;34.08;31.38;;;13.80;99.90;;;;;;5023741;28;20060;-75
2022/04/27 08:30:56;;;;;;;38.28;35.30;;;13.90;99.90;;;;;;5034483;28;20050;-76
2022/04/27 08:33:23;;;;;;;39.15;36.00;;;14.20;99.90;;;;;;5000288;28;20080;-75
2022/04/27 08:35:50;;;;;;;38.75;35.50;;;14.20;99.90;;;;;;4999580;28;20132;-75
2022/04/27 08:38:37;;;;;;;36.17;33.03;;;14.00;99.90;;;;;;4985300;28;20771;-76
2022/04/27 08:41:04;;;;;;;38.10;34.80;;;13.80;99.90;;;;;;4998916;28;20069;-75
2022/04/27 08:43:31;;;;;;;38.00;34.60;;;13.80;99.90;;;;;;5000117;28;20064;-77
2022/04/27 08:46:02;;;;;;;37.75;34.58;;;13.90;99.90;;;;;;4989074;28;20062;-76
2022/04/27 08:48:30;;;;;;;37.13;33.97;;;13.60;99.90;;;;;;5000477;28;20501;-75
2022/04/27 08:50:58;;;;;;;35.28;32.60;;;13.50;99.90;;;;;;5000296;28;20054;-76
2022/04/27 08:53:25;;;;;;;34.95;32.33;;;13.70;99.90;;;;;;4987084;28;20058;-75
2022/04/27 08:55:53;;;;;;;36.33;33.33;;;13.70;99.90;;;;;;5011900;28;20073;-75
2022/04/27 08:58:22;;;;;;;36.85;33.97;;;13.80;99.90;;;;;;5001524;28;20129;-76
2022/04/27 09:01:09;;;;;;;38.42;35.20;;;13.90;99.90;;;;;;5002958;28;20258;-75
2022/04/27 09:03:38;;;;;;;38.33;35.03;;;14.10;99.90;;;;;;5003830;28;20072;-76
2022/04/27 09:06:10;;;;;;;37.75;34.78;;;14.30;99.90;;;;;;4987518;28;20050;-75
2022/04/27 09:08:37;;;;;;;37.83;34.47;;;14.20;99.90;;;;;;4999583;28;20381;-76
2022/04/27 09:11:29;;;;;;;38.58;35.15;;;14.20;99.90;;;;;;4998001;28;20058;-76
2022/04/27 09:13:59;;;;;;;37.08;34.10;;;14.20;99.90;;;;;;5016478;28;20053;-75
2022/04/27 09:20:46;;;;;;;38.00;34.97;;;14.30;99.90;;;;;;5006864;28;20120;-74
2022/04/27 09:22:43;;;;;;;36.05;33.35;;;14.50;99.90;;;;;;4952497;28;20054;-72
2022/04/27 09:25:10;;;;;;;37.33;34.05;;;14.50;99.90;;;;;;4920047;28;20418;-72
2022/04/27 09:27:37;;;;;;;37.38;34.60;;;14.40;99.90;;;;;;4935489;29;20057;-72
2022/04/27 09:30:11;;;;;;;37.90;35.30;;;14.60;99.90;;;;;;4932654;29;20098;-72
2022/04/27 09:32:49;;;;;;;38.63;35.27;;;14.60;99.90;;;;;;4933786;29;20047;-72
2022/04/27 09:35:32;;;;;;;37.05;33.78;;;14.60;99.90;;;;;;4935420;28;20312;-73
2022/04/27 09:38:19;;;;;;;37.83;34.78;;;14.70;99.90;;;;;;4936904;28;20051;-73
2022/04/27 09:40:45;;;;;;;35.95;32.88;;;15.10;99.90;;;;;;4948765;28;20043;-73
2022/04/27 09:43:14;;;;;;;35.67;32.63;;;15.00;99.90;;;;;;4934570;28;20039;-73
2022/04/27 09:45:44;;;;;;;35.75;33.28;;;15.20;99.90;;;;;;4943125;28;20121;-73
2022/04/27 09:48:19;;;;;;;35.10;32.50;;;15.10;99.90;;;;;;4918352;29;20055;-72
2022/04/27 09:50:52;;;;;;;35.15;32.35;;;15.00;99.90;;;;;;4918898;28;20067;-72
2022/04/27 09:53:20;;;;;;;35.15;32.40;;;15.00;99.90;;;;;;4916781;29;20051;-72
2022/04/27 09:55:49;;;;;;;36.22;32.97;;;15.20;99.90;;;;;;4919311;29;20285;-72
2022/04/27 09:58:18;;;;;;;33.83;31.42;;;15.10;99.90;;;;;;4936114;28;20063;-71
2022/04/27 10:00:48;;;;;;;35.25;32.03;;;14.70;99.90;;;;;;4948199;28;20051;-72
2022/04/27 10:03:18;;;;;;;33.35;30.75;;;14.80;99.90;;;;;;4933501;28;20055;-72
2022/04/27 10:05:47;;;;;;;33.55;31.10;;;15.30;99.90;;;;;;4935596;28;20743;-74
2022/04/27 10:08:14;;;;;;;32.70;30.45;;;15.40;99.90;;;;;;4933234;28;20320;-73
2022/04/27 10:10:45;;;;;;;34.17;31.50;;;15.50;99.90;;;;;;4948880;28;20282;-72
2022/04/27 10:13:14;;;;;;;36.20;32.92;;;15.40;99.90;;;;;;4932090;28;20043;-75
2022/04/27 10:15:46;;;;;;;34.80;32.15;;;15.30;99.90;;;;;;4929353;28;20047;-71
2022/04/27 10:18:19;;;;;;;35.90;33.05;;;15.30;99.90;;;;;;4923554;28;20055;-73
2022/04/27 10:20:51;;;;;;;34.38;31.77;;;15.60;99.90;;;;;;4897000;29;20418;-72
2022/04/27 10:23:31;;;;;;;33.70;31.45;;;15.20;99.90;;;;;;4914901;29;20401;-73
2022/04/27 10:26:18;;;;;;;34.13;31.33;;;15.40;99.90;;;;;;4921297;28;20043;-72
2022/04/27 10:28:51;;;;;;;36.50;33.35;;;15.70;99.90;;;;;;4931968;28;20107;-73
2022/04/27 10:31:43;;;;;;;36.13;33.03;;;15.90;99.90;;;;;;4931822;28;20054;-70
2022/04/27 10:34:21;;;;;;;34.90;32.33;;;16.00;99.90;;;;;;4928463;28;20087;-72
2022/04/27 10:36:50;;;;;;;33.95;31.25;;;16.20;99.90;;;;;;4931412;28;20490;-72
2022/04/27 10:39:23;;;;;;;33.70;31.15;;;16.40;99.90;;;;;;4932555;29;20059;-73
2022/04/27 10:42:17;;;;;;;32.67;30.05;;;16.60;99.90;;;;;;4929221;28;20583;-71
2022/04/27 10:44:58;;;;;;;34.53;31.35;;;16.60;99.90;;;;;;4929835;28;20065;-72
2022/04/27 10:47:26;;;;;;;34.28;31.77;;;16.70;99.90;;;;;;4921225;28;20472;-72
2022/04/27 10:50:11;;;;;;;35.25;32.75;;;16.80;99.90;;;;;;4930032;28;20346;-73
2022/04/27 10:52:51;;;;;;;35.78;32.58;;;16.90;99.90;;;;;;4927532;28;20474;-72
2022/04/27 10:55:37;;;;;;;36.35;33.53;;;16.70;99.90;;;;;;4929444;28;20204;-72
2022/04/27 10:58:17;;;;;;;37.28;33.97;;;16.40;99.90;;;;;;4917862;29;20270;-73
2022/04/27 11:01:02;;;;;;;36.25;33.80;;;16.50;99.90;;;;;;4911068;29;20118;-71
2022/04/27 11:03:36;;;;;;;34.90;32.13;;;16.40;99.90;;;;;;4917091;28;20043;-71
2022/04/27 11:06:11;;;;;;;36.00;33.20;;;16.40;99.90;;;;;;4930884;28;20135;-73
2022/04/27 11:08:46;;;;;;;34.85;32.00;;;16.30;99.90;;;;;;4931385;28;20058;-72
2022/04/27 11:11:16;;;;;;;35.15;32.55;;;16.10;99.90;;;;;;4927668;28;20044;-72
2022/04/27 11:13:43;;;;;;;35.55;32.67;;;16.40;99.90;;;;;;4935370;28;20089;-70
2022/04/27 11:16:12;;;;;;;36.72;33.92;;;16.70;99.90;;;;;;4924700;28;20043;-73
2022/04/27 11:18:52;;;;;;;35.63;32.33;;;17.10;99.90;;;;;;4943812;28;20437;-70
2022/04/27 11:21:20;;;;;;;34.75;32.22;;;17.20;99.90;;;;;;4917118;28;20047;-71
2022/04/27 11:23:47;;;;;;;35.28;32.40;;;17.10;99.90;;;;;;4932707;28;20043;-72
2022/04/27 11:26:14;;;;;;;33.55;31.02;;;17.10;99.90;;;;;;4914855;29;20044;-72
2022/04/27 11:28:46;;;;;;;34.55;32.05;;;17.50;99.90;;;;;;4918632;29;20444;-72
2022/04/27 11:31:16;;;;;;;35.25;32.53;;;17.70;99.90;;;;;;4930461;28;20044;-72
2022/04/27 11:33:43;;;;;;;36.95;34.22;;;17.80;99.90;;;;;;4934022;28;20154;-73
2022/04/27 11:36:23;;;;;;;37.17;34.20;;;17.60;99.90;;;;;;4934012;28;20067;-71
2022/04/27 11:38:51;;;;;;;37.10;34.40;;;17.50;99.90;;;;;;4935807;28;20051;-73
2022/04/27 11:41:20;;;;;;;37.97;35.08;;;17.60;99.90;;;;;;4944581;28;20691;-72
2022/04/27 11:43:47;;;;;;;37.25;34.45;;;17.50;99.90;;;;;;4932517;28;20541;-72
2022/04/27 11:46:14;;;;;;;36.40;33.58;;;17.40;99.90;;;;;;4931339;28;20670;-71
2022/04/27 11:48:47;;;;;;;35.53;32.83;;;17.30;99.90;;;;;;4934551;28;20055;-73
2022/04/27 11:51:13;;;;;;;34.28;31.67;;;17.40;99.90;;;;;;4932863;28;20348;-71
2022/04/27 11:53:47;;;;;;;35.85;32.10;;;17.40;99.90;;;;;;4934490;28;20051;-72
2022/04/27 11:56:14;;;;;;;36.30;33.00;;;17.40;99.90;;;;;;4923502;28;20044;-73
2022/04/27 11:58:41;;;;;;;35.85;32.95;;;17.20;99.90;;;;;;4914230;29;20055;-70
2022/04/27 12:01:09;;;;;;;34.80;32.05;;;17.20;99.90;;;;;;4928363;28;20062;-71
2022/04/27 12:03:42;;;;;;;37.15;33.72;;;17.10;99.90;;;;;;4933552;28;20051;-72
2022/04/27 12:06:09;;;;;;;35.95;32.90;;;17.10;99.90;;;;;;4932041;28;20169;-71
2022/04/27 12:08:41;;;;;;;36.40;33.58;;;17.10;99.90;;;;;;4918258;29;20640;-71
2022/04/27 12:11:08;;;;;;;38.22;35.22;;;17.20;99.90;;;;;;4926341;28;20044;-72
2022/04/27 12:13:36;;;;;;;37.42;34.53;;;17.50;99.90;;;;;;4918269;28;20063;-71
2022/04/27 12:16:03;;;;;;;37.50;34.45;;;17.40;99.90;;;;;;4924699;28;20126;-71
2022/04/27 12:18:31;;;;;;;37.60;34.63;;;17.40;99.90;;;;;;4927399;28;20043;-72
2022/04/27 12:20:58;;;;;;;38.83;35.72;;;17.30;99.90;;;;;;4929211;28;20621;-72
2022/04/27 12:23:31;;;;;;;38.42;35.42;;;17.50;99.90;;;;;;4929058;28;20081;-72
2022/04/27 12:25:59;;;;;;;36.80;33.95;;;17.50;99.90;;;;;;4913580;28;20044;-71
2022/04/27 12:28:26;;;;;;;36.03;33.33;;;17.50;99.90;;;;;;4930639;29;20047;-70
2022/04/27 12:30:56;;;;;;;36.90;33.95;;;17.70;99.90;;;;;;4930363;29;20693;-72
2022/04/27 12:33:29;;;;;;;39.22;36.15;;;17.60;99.90;;;;;;4929201;28;20067;-70
2022/04/27 12:39:06;;;;;;;39.75;36.53;;;17.10;99.90;;;;;;4935514;29;20051;-72
2022/04/27 12:41:32;;;;;;;37.22;34.63;;;17.20;99.90;;;;;;4931382;28;20171;-71
2022/04/27 12:44:07;;;;;;;38.65;35.60;;;17.30;99.90;;;;;;4943360;28;20051;-72
2022/04/27 12:47:00;;;;;;;39.50;36.25;;;17.40;99.90;;;;;;4933366;28;20071;-72
2022/04/27 12:49:32;;;;;;;39.17;35.75;;;17.10;99.90;;;;;;4930853;29;20073;-73
2022/04/27 12:52:34;;;;;;;38.78;35.38;;;17.10;99.90;;;;;;4933595;28;20061;-72
2022/04/27 12:55:03;;;;;;;39.95;36.42;;;17.50;99.90;;;;;;4885389;28;20047;-69
2022/04/27 12:57:50;;;;;;;40.25;36.85;;;17.60;99.90;;;;;;4927707;29;20047;-71
2022/04/27 13:00:21;;;;;;;39.60;36.00;;;17.50;99.90;;;;;;4922198;29;20051;-73
2022/04/27 13:02:48;;;;;;;38.75;35.20;;;17.60;99.90;;;;;;4928393;28;20633;-72
2022/04/27 13:05:15;;;;;;;39.28;36.08;;;17.50;99.90;;;;;;4934563;28;20058;-72
2022/04/27 13:07:42;;;;;;;40.50;36.90;;;17.60;99.90;;;;;;4935494;29;20315;-72
2022/04/27 13:12:54;;;;;;;;;;;17.50;99.90;;;;;;4925568;28;20422;-75
2022/04/27 13:15:22;;;;;;;40.25;36.78;;;17.40;99.90;;;;;;4920400;28;19937;-73
2022/04/27 13:17:50;;;;;;;40.45;37.13;;;17.40;99.90;;;;;;4911868;28;20174;-74
2022/04/27 13:20:17;;;;;;;40.80;37.45;;;17.30;99.90;;;;;;4930274;28;20134;-74